createdAt,value
2023-05-08T00:00:16.876Z,97290.42
2023-05-08T00:03:05.089Z,97289.16
2023-05-08T00:05:33.167Z,97288.20
2023-05-08T00:08:01.709Z,97283.65
2023-05-08T00:10:29.689Z,97279.06
2023-05-08T00:12:57.523Z,97279.17
2023-05-08T00:15:25.367Z,97281.86
2023-05-08T00:17:53.411Z,97280.56
2023-05-08T00:20:21.419Z,97273.38
2023-05-08T00:22:49.294Z,97270.75
2023-05-08T00:25:17.164Z,97268.01
2023-05-08T00:27:45.036Z,97268.59
2023-05-08T00:30:13.404Z,97269.70
2023-05-08T00:32:42.042Z,97275.63
2023-05-08T00:35:10.014Z,97280.89
2023-05-08T00:37:40.876Z,97290.34
2023-05-08T00:40:09.546Z,97289.21
2023-05-08T00:42:37.886Z,97291.21
2023-05-08T00:45:06.163Z,97290.45
2023-05-08T00:47:34.701Z,97293.55
2023-05-08T00:50:02.906Z,97293.71
2023-05-08T00:52:32.143Z,97293.64
2023-05-08T00:55:01.443Z,97291.44
2023-05-08T00:57:30.754Z,97293.30
2023-05-08T01:00:00.215Z,97297.59
2023-05-08T01:02:29.161Z,97296.48
2023-05-08T01:04:57.621Z,97295.08
2023-05-08T01:07:26.236Z,97295.19
2023-05-08T01:09:54.213Z,97291.64
2023-05-08T01:12:41.330Z,97287.59
2023-05-08T01:15:14.585Z,97285.96
2023-05-08T01:17:58.064Z,97291.48
2023-05-08T01:20:42.688Z,97290.72
2023-05-08T01:23:31.558Z,97288.79
2023-05-08T01:26:15.488Z,97288.36
2023-05-08T01:29:18.152Z,97290.99
2023-05-08T01:31:46.144Z,97290.02
2023-05-08T01:34:34.357Z,97292.67
2023-05-08T01:37:07.768Z,97287.33
2023-05-08T01:39:38.430Z,97293.73
2023-05-08T01:42:10.357Z,97294.27
2023-05-08T01:44:43.959Z,97294.73
2023-05-08T01:47:12.451Z,97291.62
2023-05-08T01:49:42.368Z,97287.91
2023-05-08T01:52:23.861Z,97290.89
2023-05-08T01:55:11.366Z,97290.58
2023-05-08T01:57:52.146Z,97285.39
2023-05-08T02:00:21.832Z,97290.25
2023-05-08T02:02:50.925Z,97285.92
2023-05-08T02:05:21.192Z,97290.18
2023-05-08T02:07:49.971Z,97285.18
2023-05-08T02:10:20.202Z,97286.37
2023-05-08T02:12:49.150Z,97287.16
2023-05-08T02:15:17.793Z,97288.14
2023-05-08T02:17:48.652Z,97289.60
2023-05-08T02:20:17.112Z,97289.29
2023-05-08T02:22:46.215Z,97287.45
2023-05-08T02:25:15.513Z,97283.58
2023-05-08T02:27:45.703Z,97282.02
2023-05-08T02:30:14.999Z,97280.88
2023-05-08T02:32:48.048Z,97282.29
2023-05-08T02:35:17.263Z,97280.73
2023-05-08T02:37:47.260Z,97282.02
2023-05-08T02:40:17.679Z,97284.20
2023-05-08T02:42:47.017Z,97287.42
2023-05-08T02:45:15.260Z,97289.98
2023-05-08T02:48:02.096Z,97286.81
2023-05-08T02:50:36.689Z,97289.46
2023-05-08T02:53:08.329Z,97284.92
2023-05-08T02:55:47.376Z,97280.04
2023-05-08T02:58:34.244Z,97284.05
2023-05-08T03:01:11.651Z,97285.32
2023-05-08T03:03:41.457Z,97285.80
2023-05-08T03:06:13.988Z,97283.45
2023-05-08T03:08:43.257Z,97289.71
2023-05-08T03:11:16.488Z,97287.56
2023-05-08T03:13:47.307Z,97281.61
2023-05-08T03:16:18.129Z,97280.52
2023-05-08T03:18:58.192Z,97280.23
2023-05-08T03:21:29.321Z,97284.25
2023-05-08T03:23:58.134Z,97288.11
2023-05-08T03:26:26.497Z,97286.23
2023-05-08T03:28:55.857Z,97291.27
2023-05-08T03:31:28.592Z,97289.87
2023-05-08T03:33:56.863Z,97291.73
2023-05-08T03:36:27.138Z,97293.61
2023-05-08T03:38:56.080Z,97295.33
2023-05-08T03:41:25.619Z,97292.28
2023-05-08T03:43:54.820Z,97292.96
2023-05-08T03:46:23.354Z,97294.66
2023-05-08T03:48:51.926Z,97303.41
2023-05-08T03:51:21.505Z,97305.63
2023-05-08T03:53:50.909Z,97307.65
2023-05-08T03:56:19.292Z,97307.03
2023-05-08T03:58:53.313Z,97308.33
2023-05-08T04:01:27.338Z,97311.18
2023-05-08T04:03:58.538Z,97309.44
2023-05-08T04:06:50.458Z,97310.34
2023-05-08T04:09:36.303Z,97311.98
2023-05-08T04:12:22.273Z,97314.98
2023-05-08T04:14:55.500Z,97314.44
2023-05-08T04:17:35.045Z,97311.88
2023-05-08T04:20:04.730Z,97309.83
2023-05-08T04:22:34.112Z,97307.27
2023-05-08T04:25:05.250Z,97300.66
2023-05-08T04:27:33.340Z,97311.09
2023-05-08T04:30:01.831Z,97320.66
2023-05-08T04:32:31.525Z,97328.48
2023-05-08T04:35:00.332Z,97325.88
2023-05-08T04:37:30.700Z,97320.52
2023-05-08T04:40:00.281Z,97326.59
2023-05-08T04:42:28.566Z,97325.71
2023-05-08T04:44:57.813Z,97322.77
2023-05-08T04:47:25.693Z,97326.76
2023-05-08T04:49:53.708Z,97331.23
2023-05-08T04:52:21.780Z,97330.54
2023-05-08T04:54:49.859Z,97329.02
2023-05-08T04:57:17.733Z,97328.74
2023-05-08T04:59:45.802Z,97325.56
2023-05-08T05:02:13.779Z,97330.77
2023-05-08T05:04:41.870Z,97325.88
2023-05-08T05:07:10.339Z,97334.55
2023-05-08T05:09:39.441Z,97336.58
2023-05-08T05:12:07.782Z,97340.70
2023-05-08T05:14:36.730Z,97338.88
2023-05-08T05:17:04.687Z,97335.98
2023-05-08T05:19:32.883Z,97333.20
2023-05-08T05:22:00.738Z,97333.14
2023-05-08T05:24:28.814Z,97333.42
2023-05-08T05:26:58.665Z,97333.34
2023-05-08T05:29:26.613Z,97335.84
2023-05-08T05:31:54.812Z,97339.30
2023-05-08T05:34:23.206Z,97344.08
2023-05-08T05:36:51.203Z,97346.80
2023-05-08T05:39:19.009Z,97346.60
2023-05-08T05:41:46.978Z,97348.67
2023-05-08T05:44:15.117Z,97348.65
2023-05-08T05:46:44.596Z,97344.98
2023-05-08T05:49:13.576Z,97342.52
2023-05-08T05:51:42.050Z,97345.21
2023-05-08T05:54:10.566Z,97346.37
2023-05-08T05:56:38.835Z,97345.11
2023-05-08T05:59:06.801Z,97342.46
2023-05-08T06:01:35.697Z,97344.34
2023-05-08T06:04:04.562Z,97345.48
2023-05-08T06:06:32.671Z,97342.47
2023-05-08T06:09:00.946Z,97341.04
2023-05-08T06:11:28.941Z,97339.81
2023-05-08T06:13:56.971Z,97340.94
2023-05-08T06:16:25.092Z,97343.30
2023-05-08T06:18:53.003Z,97345.71
2023-05-08T06:21:21.154Z,97347.23
2023-05-08T06:23:49.231Z,97351.38
2023-05-08T06:26:17.065Z,97352.56
2023-05-08T06:28:44.945Z,97356.20
2023-05-08T06:31:12.960Z,97357.34
2023-05-08T06:33:41.047Z,97358.88
2023-05-08T06:36:09.383Z,97357.57
2023-05-08T06:38:37.185Z,97360.64
2023-05-08T06:41:05.134Z,97362.44
2023-05-08T06:43:33.099Z,97359.19
2023-05-08T06:46:01.612Z,97362.45
2023-05-08T06:48:29.636Z,97364.52
2023-05-08T06:50:58.459Z,97371.27
2023-05-08T06:53:26.672Z,97373.81
2023-05-08T06:55:54.714Z,97371.92
2023-05-08T06:58:22.520Z,97370.69
2023-05-08T07:00:50.500Z,97370.27
2023-05-08T07:03:18.344Z,97374.99
2023-05-08T07:05:46.605Z,97371.36
2023-05-08T07:08:14.407Z,97369.95
2023-05-08T07:10:42.386Z,97368.05
2023-05-08T07:13:10.174Z,97367.77
2023-05-08T07:15:39.182Z,97365.23
2023-05-08T07:18:07.095Z,97368.57
2023-05-08T07:20:35.558Z,97366.97
2023-05-08T07:23:03.297Z,97370.42
2023-05-08T07:25:31.143Z,97370.71
2023-05-08T07:28:01.164Z,97374.16
2023-05-08T07:30:29.631Z,97372.65
2023-05-08T07:32:57.714Z,97378.10
2023-05-08T07:35:25.631Z,97382.50
2023-05-08T07:37:53.509Z,97383.67
2023-05-08T07:40:21.626Z,97383.39
2023-05-08T07:42:49.385Z,97383.98
2023-05-08T07:45:17.290Z,97382.86
2023-05-08T07:47:55.502Z,97386.63
2023-05-08T07:50:24.327Z,97383.56
2023-05-08T07:52:52.975Z,97384.92
2023-05-08T07:55:21.655Z,97382.54
2023-05-08T07:57:49.522Z,97379.34
2023-05-08T08:00:17.817Z,97380.78
2023-05-08T08:02:46.180Z,97378.50
2023-05-08T08:05:14.406Z,97376.10
2023-05-08T08:07:43.073Z,97374.20
2023-05-08T08:10:11.176Z,97371.80
2023-05-08T08:12:39.493Z,97371.27
2023-05-08T08:15:07.895Z,97367.41
2023-05-08T08:17:35.771Z,97366.03
2023-05-08T08:20:03.873Z,97373.13
2023-05-08T08:22:31.827Z,97376.98
2023-05-08T08:24:59.819Z,97379.89
2023-05-08T08:27:27.669Z,97379.19
2023-05-08T08:30:08.317Z,97382.02
2023-05-08T08:32:43.516Z,97380.11
2023-05-08T08:35:12.142Z,97383.35
2023-05-08T08:37:40.342Z,97390.95
2023-05-08T08:40:08.624Z,97390.49
2023-05-08T08:42:36.449Z,97392.65
2023-05-08T08:45:04.675Z,97394.59
2023-05-08T08:47:39.982Z,97395.36
2023-05-08T08:50:09.499Z,97394.48
2023-05-08T08:53:12.595Z,97397.71
2023-05-08T08:55:40.879Z,97404.11
2023-05-08T08:58:18.373Z,97406.97
2023-05-08T09:00:47.678Z,97408.61
2023-05-08T09:03:16.253Z,97409.35
2023-05-08T09:05:45.577Z,97408.89
2023-05-08T09:08:13.439Z,97411.36
2023-05-08T09:10:41.620Z,97414.00
2023-05-08T09:13:09.532Z,97413.11
2023-05-08T09:15:37.471Z,97420.79
2023-05-08T09:18:06.653Z,97420.25
2023-05-08T09:20:35.253Z,97423.09
2023-05-08T09:23:03.727Z,97426.73
2023-05-08T09:25:50.821Z,97426.86
2023-05-08T09:28:19.854Z,97429.97
2023-05-08T09:31:00.000Z,97427.80
2023-05-08T09:33:28.703Z,97426.20
2023-05-08T09:35:57.688Z,97427.37
2023-05-08T09:38:31.598Z,97421.96
2023-05-08T09:41:26.902Z,97423.58
2023-05-08T09:44:02.818Z,97421.90
2023-05-08T09:46:31.438Z,97419.30
2023-05-08T09:49:00.242Z,97419.14
2023-05-08T09:51:29.609Z,97417.69
2023-05-08T09:53:59.009Z,97416.30
2023-05-08T09:56:30.008Z,97413.51
2023-05-08T09:58:57.869Z,97413.55
2023-05-08T10:01:28.695Z,97408.86
2023-05-08T10:03:57.158Z,97407.45
2023-05-08T10:06:25.468Z,97407.60
2023-05-08T10:09:27.362Z,97411.02
2023-05-08T10:11:58.562Z,97417.17
2023-05-08T10:14:26.540Z,97415.16
2023-05-08T10:16:54.979Z,97416.27
2023-05-08T10:19:24.036Z,97415.66
2023-05-08T10:21:52.959Z,97416.76
2023-05-08T10:24:21.815Z,97419.17
2023-05-08T10:27:06.906Z,97415.39
2023-05-08T10:29:47.232Z,97415.92
2023-05-08T10:32:19.102Z,97416.11
2023-05-08T10:34:49.531Z,97418.02
2023-05-08T10:37:17.507Z,97420.57
2023-05-08T10:39:46.707Z,97424.42
2023-05-08T10:42:14.808Z,97427.39
2023-05-08T10:44:42.755Z,97425.42
2023-05-08T10:47:19.640Z,97428.08
2023-05-08T10:50:06.657Z,97427.59
2023-05-08T10:52:37.069Z,97429.74
2023-05-08T10:55:24.175Z,97428.79
2023-05-08T10:58:12.531Z,97433.18
2023-05-08T11:00:46.642Z,97438.70
2023-05-08T11:03:29.917Z,97436.75
2023-05-08T11:05:59.757Z,97434.59
2023-05-08T11:08:28.727Z,97431.86
2023-05-08T11:11:00.316Z,97435.19
2023-05-08T11:13:30.220Z,97436.74
2023-05-08T11:15:58.303Z,97433.00
2023-05-08T11:18:32.432Z,97435.75
2023-05-08T11:21:15.279Z,97434.55
2023-05-08T11:23:43.238Z,97432.96
2023-05-08T11:26:11.610Z,97432.25
2023-05-08T11:28:58.121Z,97435.17
2023-05-08T11:31:45.965Z,97435.35
2023-05-08T11:34:32.768Z,97434.17
2023-05-08T11:37:01.848Z,97436.37
2023-05-08T11:39:29.814Z,97438.39
2023-05-08T11:42:17.649Z,97440.67
2023-05-08T11:44:45.822Z,97442.53
2023-05-08T11:47:18.720Z,97442.80
2023-05-08T11:49:46.863Z,97446.48
2023-05-08T11:52:18.581Z,97447.48
2023-05-08T11:54:46.600Z,97448.79
2023-05-08T11:57:17.353Z,97452.67
2023-05-08T11:59:49.521Z,97450.55
2023-05-08T12:02:17.506Z,97456.22
2023-05-08T12:04:48.533Z,97459.45
2023-05-08T12:07:17.246Z,97461.73
2023-05-08T12:09:46.881Z,97463.92
2023-05-08T12:12:14.909Z,97465.72
2023-05-08T12:14:42.895Z,97468.78
2023-05-08T12:17:10.741Z,97472.34
2023-05-08T12:19:38.694Z,97473.33
2023-05-08T12:22:08.427Z,97471.36
2023-05-08T12:24:36.534Z,97476.74
2023-05-08T12:27:04.390Z,97474.43
2023-05-08T12:29:35.859Z,97472.40
2023-05-08T12:32:03.823Z,97475.21
2023-05-08T12:34:31.918Z,97474.56
2023-05-08T12:37:03.578Z,97470.89
2023-05-08T12:39:35.741Z,97472.17
2023-05-08T12:42:03.694Z,97471.75
2023-05-08T12:44:31.788Z,97473.71
2023-05-08T12:47:00.385Z,97477.23
2023-05-08T12:49:28.942Z,97476.86
2023-05-08T12:52:04.238Z,97477.24
2023-05-08T12:54:33.103Z,97477.98
2023-05-08T12:57:01.380Z,97474.90
2023-05-08T12:59:31.815Z,97476.09
2023-05-08T13:01:59.828Z,97477.21
2023-05-08T13:04:28.021Z,97476.16
2023-05-08T13:06:57.027Z,97474.02
2023-05-08T13:09:25.149Z,97470.11
2023-05-08T13:11:53.131Z,97467.11
2023-05-08T13:14:21.034Z,97473.58
2023-05-08T13:16:49.400Z,97472.17
2023-05-08T13:19:17.950Z,97474.52
2023-05-08T13:21:49.565Z,97478.48
2023-05-08T13:24:17.502Z,97478.39
2023-05-08T13:26:46.286Z,97478.44
2023-05-08T13:29:14.042Z,97482.47
2023-05-08T13:31:41.976Z,97480.56
2023-05-08T13:34:10.303Z,97477.86
2023-05-08T13:36:38.088Z,97482.58
2023-05-08T13:39:06.311Z,97482.63
2023-05-08T13:41:34.126Z,97484.58
2023-05-08T13:44:01.930Z,97487.75
2023-05-08T13:46:29.861Z,97487.02
2023-05-08T13:48:57.834Z,97487.41
2023-05-08T13:51:26.564Z,97491.45
2023-05-08T13:53:54.368Z,97494.11
2023-05-08T13:56:22.489Z,97495.41
2023-05-08T13:58:50.451Z,97499.11
2023-05-08T14:01:26.499Z,97499.96
2023-05-08T14:03:55.785Z,97498.85
2023-05-08T14:06:24.103Z,97499.81
2023-05-08T14:08:54.443Z,97497.88
2023-05-08T14:11:24.354Z,97498.85
2023-05-08T14:13:52.145Z,97500.58
2023-05-08T14:16:20.156Z,97504.68
2023-05-08T14:18:48.168Z,97506.60
2023-05-08T14:21:16.039Z,97506.77
2023-05-08T14:23:45.122Z,97505.83
2023-05-08T14:26:13.026Z,97504.75
2023-05-08T14:28:41.208Z,97506.52
2023-05-08T14:31:09.208Z,97511.33
2023-05-08T14:33:37.139Z,97511.52
2023-05-08T14:36:05.241Z,97511.67
2023-05-08T14:38:33.207Z,97510.95
2023-05-08T14:41:04.346Z,97515.56
2023-05-08T14:43:33.019Z,97520.84
2023-05-08T14:46:01.230Z,97523.11
2023-05-08T14:48:29.284Z,97527.11
2023-05-08T14:50:57.774Z,97528.34
2023-05-08T14:53:25.956Z,97532.84
2023-05-08T14:55:54.211Z,97534.25
2023-05-08T14:58:22.594Z,97539.29
2023-05-08T15:00:50.490Z,97546.38
2023-05-08T15:03:18.789Z,97546.27
2023-05-08T15:05:47.363Z,97549.39
2023-05-08T15:08:15.239Z,97552.83
2023-05-08T15:10:43.242Z,97555.66
2023-05-08T15:13:11.261Z,97556.39
2023-05-08T15:15:39.357Z,97560.95
2023-05-08T15:18:07.269Z,97560.72
2023-05-08T15:20:35.308Z,97565.45
2023-05-08T15:23:03.385Z,97567.06
2023-05-08T15:25:31.563Z,97564.00
2023-05-08T15:28:00.808Z,97561.77
2023-05-08T15:30:29.246Z,97562.91
2023-05-08T15:32:57.215Z,97564.16
2023-05-08T15:35:25.056Z,97561.90
2023-05-08T15:37:52.958Z,97561.61
2023-05-08T15:40:20.736Z,97564.39
2023-05-08T15:42:48.514Z,97564.10
2023-05-08T15:45:16.735Z,97564.83
2023-05-08T15:47:44.674Z,97565.49
2023-05-08T15:50:12.747Z,97569.98
2023-05-08T15:52:40.610Z,97569.67
2023-05-08T15:55:09.020Z,97566.85
2023-05-08T15:57:36.735Z,97565.66
2023-05-08T16:00:04.917Z,97573.24
2023-05-08T16:02:33.128Z,97575.28
2023-05-08T16:05:01.206Z,97575.42
2023-05-08T16:07:29.019Z,97579.54
2023-05-08T16:09:56.855Z,97579.63
2023-05-08T16:12:24.819Z,97583.98
2023-05-08T16:14:52.793Z,97586.38
2023-05-08T16:17:20.605Z,97589.33
2023-05-08T16:19:48.441Z,97591.39
2023-05-08T16:22:16.304Z,97593.42
2023-05-08T16:24:44.131Z,97591.70
2023-05-08T16:27:12.659Z,97594.91
2023-05-08T16:29:40.507Z,97594.95
2023-05-08T16:32:08.548Z,97596.14
2023-05-08T16:34:36.900Z,97598.41
2023-05-08T16:37:05.205Z,97598.05
2023-05-08T16:39:33.151Z,97600.16
2023-05-08T16:42:00.966Z,97599.97
2023-05-08T16:44:28.798Z,97604.27
2023-05-08T16:46:56.837Z,97610.08
2023-05-08T16:49:24.654Z,97610.91
2023-05-08T16:51:52.593Z,97616.33
2023-05-08T16:54:20.484Z,97618.59
2023-05-08T16:56:48.245Z,97621.83
2023-05-08T16:59:16.024Z,97622.73
2023-05-08T17:01:43.965Z,97623.99
2023-05-08T17:04:12.174Z,97624.25
2023-05-08T17:06:42.952Z,97629.52
2023-05-08T17:09:10.789Z,97628.95
2023-05-08T17:11:38.654Z,97630.81
2023-05-08T17:14:06.543Z,97634.11
2023-05-08T17:16:34.471Z,97642.89
2023-05-08T17:19:02.481Z,97649.64
2023-05-08T17:21:32.171Z,97656.88
2023-05-08T17:24:01.074Z,97659.62
2023-05-08T17:26:31.816Z,97663.23
2023-05-08T17:28:59.707Z,97670.02
2023-05-08T17:31:27.519Z,97673.10
2023-05-08T17:33:55.648Z,97674.30
2023-05-08T17:36:23.712Z,97675.51
2023-05-08T17:38:52.079Z,97681.73
2023-05-08T17:41:20.287Z,97684.14
2023-05-08T17:43:48.271Z,97685.88
2023-05-08T17:46:16.114Z,97690.73
2023-05-08T17:48:44.201Z,97691.05
2023-05-08T17:51:12.583Z,97690.70
2023-05-08T17:53:40.548Z,97694.02
2023-05-08T17:56:09.395Z,97701.94
2023-05-08T17:58:37.276Z,97702.42
2023-05-08T18:01:06.345Z,97708.64
2023-05-08T18:03:34.218Z,97709.17
2023-05-08T18:06:02.347Z,97717.32
2023-05-08T18:08:30.256Z,97723.45
2023-05-08T18:10:58.095Z,97726.16
2023-05-08T18:13:26.046Z,97732.02
2023-05-08T18:15:54.287Z,97730.21
2023-05-08T18:18:22.145Z,97732.95
2023-05-08T18:20:50.116Z,97740.15
2023-05-08T18:23:18.036Z,97742.20
2023-05-08T18:25:45.988Z,97745.45
2023-05-08T18:28:14.048Z,97750.01
2023-05-08T18:30:41.914Z,97755.84
2023-05-08T18:33:09.697Z,97763.43
2023-05-08T18:35:37.659Z,97766.67
2023-05-08T18:38:05.734Z,97774.43
2023-05-08T18:40:33.820Z,97778.86
2023-05-08T18:43:01.941Z,97778.77
2023-05-08T18:45:29.802Z,97775.63
2023-05-08T18:47:57.758Z,97779.91
2023-05-08T18:50:26.118Z,97783.65
2023-05-08T18:52:53.988Z,97785.25
2023-05-08T18:55:21.972Z,97783.30
2023-05-08T18:57:49.844Z,97784.75
2023-05-08T19:00:17.975Z,97787.06
2023-05-08T19:02:45.834Z,97791.98
2023-05-08T19:05:13.865Z,97793.23
2023-05-08T19:07:42.768Z,97793.83
2023-05-08T19:10:11.485Z,97795.80
2023-05-08T19:12:39.835Z,97798.09
2023-05-08T19:15:13.941Z,97801.26
2023-05-08T19:17:42.363Z,97801.84
2023-05-08T19:20:10.955Z,97801.51
2023-05-08T19:22:38.852Z,97805.08
2023-05-08T19:25:06.866Z,97810.85
2023-05-08T19:27:34.745Z,97813.16
2023-05-08T19:30:02.647Z,97810.98
2023-05-08T19:32:30.468Z,97812.78
2023-05-08T19:34:58.471Z,97818.40
2023-05-08T19:37:26.209Z,97816.53
2023-05-08T19:39:54.213Z,97814.69
2023-05-08T19:42:22.075Z,97816.46
2023-05-08T19:44:50.055Z,97817.17
2023-05-08T19:47:18.225Z,97815.14
2023-05-08T19:49:46.303Z,97814.13
2023-05-08T19:52:14.281Z,97810.70
2023-05-08T19:54:44.696Z,97818.52
2023-05-08T19:57:12.895Z,97820.27
2023-05-08T19:59:40.774Z,97823.48
2023-05-08T20:02:08.714Z,97820.63
2023-05-08T20:04:51.837Z,97822.04
2023-05-08T20:07:24.524Z,97820.35
2023-05-08T20:09:52.516Z,97824.02
2023-05-08T20:12:20.409Z,97825.33
2023-05-08T20:14:48.297Z,97821.46
2023-05-08T20:17:16.403Z,97819.69
2023-05-08T20:19:44.420Z,97820.05
2023-05-08T20:22:12.463Z,97818.19
2023-05-08T20:24:40.348Z,97818.07
2023-05-08T20:27:08.236Z,97815.55
2023-05-08T20:29:36.583Z,97814.61
2023-05-08T20:32:04.548Z,97816.69
2023-05-08T20:34:32.431Z,97820.06
2023-05-08T20:37:01.138Z,97820.69
2023-05-08T20:39:28.956Z,97822.89
2023-05-08T20:41:56.781Z,97820.70
2023-05-08T20:44:24.672Z,97819.63
2023-05-08T20:46:52.744Z,97824.30
2023-05-08T20:49:20.622Z,97831.27
2023-05-08T20:51:48.602Z,97831.10
2023-05-08T20:54:16.480Z,97831.80
2023-05-08T20:56:44.273Z,97832.48
2023-05-08T20:59:12.088Z,97833.47
2023-05-08T21:01:40.025Z,97836.40
2023-05-08T21:04:08.275Z,97834.24
2023-05-08T21:06:36.542Z,97833.02
2023-05-08T21:09:06.522Z,97839.69
2023-05-08T21:11:35.235Z,97840.67
2023-05-08T21:14:03.220Z,97841.73
2023-05-08T21:16:31.446Z,97837.77
2023-05-08T21:18:59.446Z,97838.27
2023-05-08T21:21:27.953Z,97837.34
2023-05-08T21:23:55.836Z,97838.95
2023-05-08T21:26:23.839Z,97841.42
2023-05-08T21:28:53.846Z,97844.57
2023-05-08T21:31:22.593Z,97844.80
2023-05-08T21:33:52.047Z,97848.11
2023-05-08T21:36:19.902Z,97851.39
2023-05-08T21:38:47.885Z,97846.93
2023-05-08T21:41:16.163Z,97845.76
2023-05-08T21:43:44.135Z,97847.94
2023-05-08T21:46:11.990Z,97847.05
2023-05-08T21:48:39.876Z,97846.26
2023-05-08T21:51:07.736Z,97847.64
2023-05-08T21:53:35.833Z,97844.92
2023-05-08T21:56:03.889Z,97844.95
2023-05-08T21:58:31.680Z,97845.64
2023-05-08T22:00:59.643Z,97850.31
2023-05-08T22:03:28.015Z,97846.54
2023-05-08T22:05:56.110Z,97845.02
2023-05-08T22:08:23.993Z,97846.11
2023-05-08T22:10:51.952Z,97849.61
2023-05-08T22:13:19.889Z,97848.24
2023-05-08T22:15:47.915Z,97845.17
2023-05-08T22:18:15.788Z,97843.42
2023-05-08T22:20:44.061Z,97842.58
2023-05-08T22:23:12.132Z,97842.30
2023-05-08T22:25:39.998Z,97844.40
2023-05-08T22:28:07.764Z,97842.86
2023-05-08T22:30:35.626Z,97842.55
2023-05-08T22:33:03.551Z,97841.73
2023-05-08T22:35:31.702Z,97843.34
2023-05-08T22:37:59.657Z,97846.66
2023-05-08T22:40:28.843Z,97847.58
2023-05-08T22:42:58.717Z,97848.30
2023-05-08T22:45:27.353Z,97847.43
2023-05-08T22:47:55.540Z,97848.48
2023-05-08T22:50:23.940Z,97848.15
2023-05-08T22:52:51.814Z,97850.23
2023-05-08T22:55:19.889Z,97851.28
2023-05-08T22:57:47.765Z,97850.42
2023-05-08T23:00:16.464Z,97850.15
2023-05-08T23:02:44.425Z,97848.69
2023-05-08T23:05:12.764Z,97844.05
2023-05-08T23:07:40.784Z,97846.84
2023-05-08T23:10:08.880Z,97847.95
2023-05-08T23:12:37.448Z,97846.09
2023-05-08T23:15:05.722Z,97848.88
2023-05-08T23:17:33.661Z,97850.09
2023-05-08T23:20:01.774Z,97844.58
2023-05-08T23:22:29.644Z,97845.82
2023-05-08T23:24:57.515Z,97841.37
2023-05-08T23:27:25.869Z,97841.23
2023-05-08T23:29:54.074Z,97841.95
2023-05-08T23:32:21.872Z,97838.40
2023-05-08T23:34:49.827Z,97839.29
2023-05-08T23:37:17.809Z,97842.27
2023-05-08T23:39:45.749Z,97845.60
2023-05-08T23:42:13.844Z,97846.52
2023-05-08T23:44:41.931Z,97848.99
2023-05-08T23:47:09.805Z,97847.51
2023-05-08T23:49:37.673Z,97842.02
2023-05-08T23:52:06.779Z,97842.36
2023-05-08T23:54:34.554Z,97840.02
2023-05-08T23:57:02.510Z,97833.45
2023-05-08T23:59:30.595Z,97837.59
